Terminal Aerodrome Forecast
Issued by NWS

Home | Current Version | Previous Version | Text Only | Print | Product List | Glossary On
Versions: 1 2 3 4 5 6 7 8 9 10 11 12 13 14 15 16 17 18 19 20 21 22
000
FTUS43 KDLH 311720
TAFBRD
TAF
KBRD 311720Z 3118/0118 19015G28KT P6SM FEW200
     FM010200 19005KT P6SM SCT040 BKN120
     FM010800 00000KT 6SM BR FEW013 BKN100
     FM011600 24005KT P6SM SCT100=

USA.gov is the U.S. government's official web portal to all federal, state and local government web resources and services.